Flugplatz Bad Sobernheim-Domberg

Für EDRS sind keine METAR/TAF Berichte vorhanden.
Es werden die Flugwettermeldungen vom Flugplatz Frankfurt-Hahn in 33 km Entfernung angezeigt.

Bericht für EDFH

vom 27.09. um 00:50 UTC

Wind 13 kt aus 250°

Sichtweite 7000 m

Regen

aufgebrochene Bewölkung in 500 ft

Temperatur 7.0°C

Taupunkt 7.0°C

Luftfeuchtigkeit 100%

Luftdruck 996 hPa

EDFH 270050Z 25013KT 220V280 7000 RA BKN005 07/07 Q0996

Prognose für EDFH

vom 26.09. um 23:00 UTC

Zwischen 00:00 UTC und 06:00 UTC

Wind 10 kt aus 240°

Sichtweite 7000 m

gering bewölkt in 200 ft

aufgebrochene Bewölkung in 1000 ft


Zwischen 00:00 UTC und 06:00 UTC zeitweise

Sichtweite 2000 m

Regen

feuchter Dunst

aufgebrochene Bewölkung in 200 ft


Zwischen 06:00 UTC und 12:00 UTC zeitweise

aufgebrochene Bewölkung in 400 ft


Zwischen 06:00 und 08:00 UTC übergehend zu

Wind 10 kt aus 150°

Sichtweite 7000 m

gering bewölkt in 200 ft

aufgebrochene Bewölkung in 1000 ft


Zwischen 15:00 UTC und 00:00 UTC zeitweise

aufgelockert bewölkt in 1000 ft

TAF EDFH 262300Z 2700/2724 24010KT 7000 FEW002 BKN010 TEMPO 2700/2706 2000 RA BR BKN002 BECMG 2706/2708 15010KT TEMPO 2706/2712 BKN004 TEMPO 2715/2724 SCT010
Impressum